createdAt,value
2022-09-07T00:02:24.161Z,6.04
2022-09-07T00:04:51.039Z,6.06
2022-09-07T00:07:17.875Z,6.06
2022-09-07T00:09:44.835Z,6.07
2022-09-07T00:12:11.797Z,6.06
2022-09-07T00:14:38.619Z,6.09
2022-09-07T00:17:05.480Z,6.10
2022-09-07T00:19:32.309Z,6.11
2022-09-07T00:21:59.160Z,6.11
2022-09-07T00:24:26.079Z,6.14
2022-09-07T00:26:56.335Z,6.16
2022-09-07T00:29:23.526Z,6.14
2022-09-07T00:31:50.476Z,6.18
2022-09-07T00:34:17.425Z,6.16
2022-09-07T00:36:44.254Z,6.18
2022-09-07T00:39:11.216Z,6.20
2022-09-07T00:41:38.121Z,6.23
2022-09-07T00:44:42.176Z,6.30
2022-09-07T00:47:19.088Z,6.29
2022-09-07T00:49:51.942Z,6.31
2022-09-07T00:52:20.026Z,6.31
2022-09-07T00:54:52.830Z,6.35
2022-09-07T00:57:20.489Z,6.35
2022-09-07T00:59:52.574Z,6.36
2022-09-07T01:02:20.177Z,6.40
2022-09-07T01:04:51.957Z,6.36
2022-09-07T01:07:19.491Z,6.31
2022-09-07T01:09:47.423Z,6.31
2022-09-07T01:12:14.676Z,6.36
2022-09-07T01:14:47.141Z,6.37
2022-09-07T01:17:41.625Z,6.34
2022-09-07T01:20:54.740Z,6.31
2022-09-07T01:23:24.396Z,6.26
2022-09-07T01:26:09.323Z,6.27
2022-09-07T01:28:37.524Z,6.23
2022-09-07T01:31:21.191Z,6.26
2022-09-07T01:34:11.440Z,6.26
2022-09-07T01:36:38.191Z,6.20
2022-09-07T01:39:06.262Z,6.18
2022-09-07T01:41:42.904Z,6.22
2022-09-07T01:44:33.803Z,6.21
2022-09-07T01:47:05.344Z,6.16
2022-09-07T01:49:40.208Z,6.20
2022-09-07T01:52:15.366Z,6.13
2022-09-07T01:54:52.326Z,6.12
2022-09-07T01:57:27.682Z,6.08
2022-09-07T02:00:17.453Z,6.11
2022-09-07T02:03:21.377Z,6.07
2022-09-07T02:05:50.888Z,5.97
2022-09-07T02:08:33.276Z,6.00
2022-09-07T02:11:08.888Z,5.94
2022-09-07T02:13:38.409Z,5.90
2022-09-07T02:16:14.366Z,5.93
2022-09-07T02:18:47.181Z,5.90
2022-09-07T02:21:19.913Z,5.88
2022-09-07T02:23:57.055Z,5.92
2022-09-07T02:26:28.772Z,5.89
2022-09-07T02:28:56.574Z,5.87
2022-09-07T02:31:23.881Z,5.83
2022-09-07T02:33:51.353Z,5.82
2022-09-07T02:36:22.820Z,5.82
2022-09-07T02:38:49.693Z,5.82
2022-09-07T02:41:40.983Z,5.88
2022-09-07T02:44:12.897Z,5.83
2022-09-07T02:47:17.498Z,5.87
2022-09-07T02:50:12.964Z,5.81
2022-09-07T02:53:13.702Z,5.79
2022-09-07T02:55:52.701Z,5.78
2022-09-07T02:58:33.647Z,5.79
2022-09-07T03:01:06.643Z,5.73
2022-09-07T03:03:48.335Z,5.75
2022-09-07T03:06:28.260Z,5.73
2022-09-07T03:08:58.421Z,5.69
2022-09-07T03:11:26.056Z,5.73
2022-09-07T03:13:52.929Z,5.73
2022-09-07T03:16:19.822Z,5.76
2022-09-07T03:18:46.691Z,5.76
2022-09-07T03:21:13.526Z,5.78
2022-09-07T03:23:40.480Z,5.82
2022-09-07T03:26:07.404Z,5.82
2022-09-07T03:28:34.318Z,5.81
2022-09-07T03:31:02.909Z,5.83
2022-09-07T03:33:29.886Z,5.84
2022-09-07T03:35:59.841Z,5.87
2022-09-07T03:38:26.797Z,5.87
2022-09-07T03:41:05.050Z,5.92
2022-09-07T03:43:32.814Z,5.89
2022-09-07T03:46:01.747Z,5.93
2022-09-07T03:48:33.462Z,5.96
2022-09-07T03:51:03.224Z,5.92
2022-09-07T03:53:48.964Z,5.97
2022-09-07T03:56:19.134Z,5.91
2022-09-07T03:58:47.771Z,5.89
2022-09-07T04:01:20.706Z,5.91
2022-09-07T04:03:48.529Z,5.92
2022-09-07T04:06:16.490Z,5.91
2022-09-07T04:08:44.754Z,5.95
2022-09-07T04:11:17.144Z,6.00
2022-09-07T04:13:44.509Z,5.96
2022-09-07T04:16:26.190Z,5.97
2022-09-07T04:18:57.803Z,5.92
2022-09-07T04:21:26.373Z,5.95
2022-09-07T04:23:53.834Z,5.92
2022-09-07T04:26:26.546Z,5.96
2022-09-07T04:28:54.713Z,5.95
2022-09-07T04:31:22.687Z,5.93
2022-09-07T04:33:50.647Z,5.98
2022-09-07T04:36:19.635Z,5.95
2022-09-07T04:38:47.159Z,5.97
2022-09-07T04:41:18.517Z,6.04
2022-09-07T04:43:46.400Z,6.08
2022-09-07T04:46:15.917Z,6.12
2022-09-07T04:48:42.848Z,6.21
2022-09-07T04:51:10.884Z,6.31
2022-09-07T04:53:38.682Z,6.34
2022-09-07T04:56:05.733Z,6.40
2022-09-07T04:58:32.897Z,6.38
2022-09-07T05:01:04.687Z,6.41
2022-09-07T05:03:33.606Z,6.45
2022-09-07T05:06:07.959Z,6.55
2022-09-07T05:08:40.060Z,6.62
2022-09-07T05:11:06.816Z,6.72
2022-09-07T05:13:34.324Z,6.72
2022-09-07T05:16:07.239Z,6.82
2022-09-07T05:18:34.225Z,6.88
2022-09-07T05:21:13.085Z,7.00
2022-09-07T05:23:40.002Z,7.04
2022-09-07T05:26:07.735Z,7.02
2022-09-07T05:28:35.869Z,7.02
2022-09-07T05:31:17.559Z,7.08
2022-09-07T05:36:40.409Z,7.25
2022-09-07T05:39:08.664Z,7.30
2022-09-07T05:41:35.528Z,7.32
2022-09-07T05:46:51.167Z,7.48
2022-09-07T05:49:17.985Z,7.49
2022-09-07T05:51:44.818Z,7.53
2022-09-07T05:54:12.219Z,7.59
2022-09-07T05:56:39.133Z,7.70
2022-09-07T05:59:05.960Z,7.81
2022-09-07T06:01:32.953Z,7.94
2022-09-07T06:04:00.553Z,7.96
2022-09-07T06:06:27.540Z,7.96
2022-09-07T06:08:54.650Z,7.94
2022-09-07T06:11:23.596Z,7.88
2022-09-07T06:13:50.780Z,7.75
2022-09-07T06:16:19.988Z,7.73
2022-09-07T06:18:49.478Z,7.70
2022-09-07T06:21:21.453Z,7.70
2022-09-07T06:23:49.657Z,7.70
2022-09-07T06:26:18.208Z,7.77
2022-09-07T06:28:49.655Z,7.92
2022-09-07T06:31:22.023Z,8.02
2022-09-07T06:33:49.905Z,8.12
2022-09-07T06:36:22.121Z,8.14
2022-09-07T06:38:49.721Z,8.23
2022-09-07T06:44:17.182Z,8.33
2022-09-07T06:49:30.878Z,8.50
2022-09-07T06:51:57.701Z,8.61
2022-09-07T06:57:11.332Z,8.84
2022-09-07T06:59:38.489Z,8.93
2022-09-07T07:02:06.388Z,8.95
2022-09-07T07:04:37.683Z,8.96
2022-09-07T07:07:06.700Z,8.97
2022-09-07T07:09:33.520Z,9.03
2022-09-07T07:12:00.443Z,9.06
2022-09-07T07:14:28.207Z,9.14
2022-09-07T07:16:56.846Z,9.26
2022-09-07T07:19:23.717Z,9.41
2022-09-07T07:22:18.706Z,9.50
2022-09-07T07:24:37.381Z,9.66
2022-09-07T07:27:04.252Z,9.82
2022-09-07T07:29:31.127Z,9.83
2022-09-07T07:31:58.100Z,9.87
2022-09-07T07:34:24.999Z,9.92
2022-09-07T07:36:51.793Z,9.94
2022-09-07T07:42:06.210Z,9.85
2022-09-07T07:44:33.144Z,9.80
2022-09-07T07:47:00.340Z,9.75
2022-09-07T07:49:27.162Z,9.82
2022-09-07T07:54:42.393Z,10.19
2022-09-07T07:57:09.224Z,10.22
2022-09-07T07:59:36.109Z,10.30
2022-09-07T08:02:05.241Z,10.38
2022-09-07T08:04:33.963Z,10.37
2022-09-07T08:07:04.488Z,10.35
2022-09-07T08:09:37.013Z,10.36
2022-09-07T08:12:04.080Z,10.35
2022-09-07T08:14:31.028Z,10.35
2022-09-07T08:16:57.846Z,10.40
2022-09-07T08:19:24.692Z,10.43
2022-09-07T08:21:51.440Z,10.37
2022-09-07T08:24:18.208Z,10.33
2022-09-07T08:26:44.926Z,10.36
2022-09-07T08:29:11.680Z,10.34
2022-09-07T08:31:38.474Z,10.29
2022-09-07T08:34:06.479Z,10.35
2022-09-07T08:36:33.805Z,10.39
2022-09-07T08:39:00.574Z,10.47
2022-09-07T08:41:48.864Z,10.59
2022-09-07T08:44:18.554Z,10.53
2022-09-07T08:47:04.370Z,10.61
2022-09-07T08:49:31.346Z,10.47
2022-09-07T08:52:05.356Z,10.48
2022-09-07T08:54:33.157Z,10.39
2022-09-07T09:00:10.229Z,10.48
2022-09-07T09:02:43.400Z,10.53
2022-09-07T09:05:34.050Z,10.74
2022-09-07T09:08:26.798Z,10.80
2022-09-07T09:11:09.978Z,10.84
2022-09-07T09:14:01.331Z,10.87
2022-09-07T09:16:36.037Z,10.80
2022-09-07T09:19:33.617Z,10.82
2022-09-07T09:22:10.433Z,10.75
2022-09-07T09:24:40.506Z,10.77
2022-09-07T09:27:07.236Z,10.73
2022-09-07T09:29:34.182Z,10.75
2022-09-07T09:32:31.467Z,10.91
2022-09-07T09:35:02.440Z,10.93
2022-09-07T09:37:38.750Z,10.87
2022-09-07T09:40:08.030Z,10.80
2022-09-07T09:42:36.140Z,10.89
2022-09-07T09:45:16.408Z,10.87
2022-09-07T09:47:49.743Z,10.72
2022-09-07T09:53:34.823Z,10.66
2022-09-07T09:56:04.317Z,10.71
2022-09-07T10:01:35.485Z,10.94
2022-09-07T10:04:38.394Z,11.20
2022-09-07T10:07:27.756Z,11.14
2022-09-07T10:09:55.937Z,11.08
2022-09-07T10:12:37.018Z,11.27
2022-09-07T10:15:07.055Z,11.29
2022-09-07T10:17:50.624Z,11.35
2022-09-07T10:20:17.312Z,11.21
2022-09-07T10:22:50.899Z,10.86
2022-09-07T10:25:45.517Z,10.82
2022-09-07T10:28:15.608Z,10.82
2022-09-07T10:31:14.538Z,10.94
2022-09-07T10:34:25.661Z,10.76
2022-09-07T10:36:53.831Z,10.85
2022-09-07T10:39:59.621Z,10.69
2022-09-07T10:42:32.904Z,10.57
2022-09-07T10:45:48.093Z,10.61
2022-09-07T10:48:46.918Z,10.55
2022-09-07T10:51:39.406Z,10.37
2022-09-07T10:54:33.720Z,10.18
2022-09-07T10:57:15.571Z,9.91
2022-09-07T11:00:09.569Z,9.91
2022-09-07T11:03:29.577Z,9.66
2022-09-07T11:06:02.719Z,9.43
2022-09-07T11:12:01.141Z,9.24
2022-09-07T11:17:02.726Z,9.16
2022-09-07T11:19:37.898Z,9.09
2022-09-07T11:22:35.731Z,9.03
2022-09-07T11:25:32.284Z,8.84
2022-09-07T11:28:05.230Z,8.59
2022-09-07T11:30:41.501Z,8.41
2022-09-07T11:33:21.370Z,8.42
2022-09-07T11:36:12.800Z,8.37
2022-09-07T11:38:46.121Z,8.32
2022-09-07T11:41:23.673Z,8.21
2022-09-07T11:44:02.309Z,8.19
2022-09-07T11:46:45.616Z,8.05
2022-09-07T11:49:26.066Z,7.87
2022-09-07T11:51:57.498Z,7.86
2022-09-07T11:54:44.042Z,7.87
2022-09-07T11:57:29.541Z,7.87
2022-09-07T12:00:06.355Z,7.88
2022-09-07T12:02:58.816Z,7.87
2022-09-07T12:05:42.804Z,7.81
2022-09-07T12:08:43.317Z,7.77
2022-09-07T12:11:31.717Z,7.74
2022-09-07T12:14:25.634Z,7.65
2022-09-07T12:17:11.104Z,7.63
2022-09-07T12:19:38.069Z,7.57
2022-09-07T12:22:05.514Z,7.54
2022-09-07T12:24:35.138Z,7.48
2022-09-07T12:27:09.370Z,7.45
2022-09-07T12:29:36.452Z,7.45
2022-09-07T12:32:53.246Z,7.44
2022-09-07T12:34:54.441Z,7.42
2022-09-07T12:37:26.972Z,7.38
2022-09-07T12:40:28.318Z,7.39
2022-09-07T12:43:15.134Z,7.38
2022-09-07T12:45:47.734Z,7.39
2022-09-07T12:48:17.609Z,7.36
2022-09-07T12:51:14.507Z,7.41
2022-09-07T12:53:55.536Z,7.39
2022-09-07T12:56:42.715Z,7.39
2022-09-07T12:59:24.478Z,7.36
2022-09-07T13:02:27.778Z,7.38
2022-09-07T13:05:15.924Z,7.39
2022-09-07T13:08:09.085Z,7.40
2022-09-07T13:10:38.430Z,7.36
2022-09-07T13:13:15.793Z,7.40
2022-09-07T13:15:45.480Z,7.41
2022-09-07T13:18:34.735Z,7.49
2022-09-07T13:21:08.084Z,7.47
2022-09-07T13:23:39.878Z,7.45
2022-09-07T13:26:10.718Z,7.49
2022-09-07T13:28:49.572Z,7.52
2022-09-07T13:31:45.380Z,7.56
2022-09-07T13:35:00.098Z,7.58
2022-09-07T13:37:28.222Z,7.50
2022-09-07T13:39:58.399Z,7.51
2022-09-07T13:42:32.448Z,7.49
2022-09-07T13:45:06.572Z,7.47
2022-09-07T13:47:49.479Z,7.42
2022-09-07T13:50:36.472Z,7.42
2022-09-07T13:53:31.137Z,7.45
2022-09-07T13:56:39.480Z,7.48
2022-09-07T13:59:28.812Z,7.50
2022-09-07T14:01:58.484Z,7.50
2022-09-07T14:04:29.768Z,7.53
2022-09-07T14:07:23.883Z,7.57
2022-09-07T14:10:09.604Z,7.61
2022-09-07T14:12:49.752Z,7.65
2022-09-07T14:15:23.681Z,7.69
2022-09-07T14:18:02.271Z,7.69
2022-09-07T14:20:29.888Z,7.73
2022-09-07T14:22:56.777Z,7.76
2022-09-07T14:25:23.819Z,7.84
2022-09-07T14:27:51.198Z,7.88
2022-09-07T14:30:28.216Z,7.95
2022-09-07T14:33:13.508Z,8.01
2022-09-07T14:35:41.480Z,8.03
2022-09-07T14:39:03.938Z,8.09
2022-09-07T14:41:19.066Z,8.12
2022-09-07T14:43:54.681Z,8.20
2022-09-07T14:46:28.290Z,8.22
2022-09-07T14:49:00.619Z,8.28
2022-09-07T14:51:36.278Z,8.29
2022-09-07T14:54:08.078Z,8.31
2022-09-07T14:56:41.614Z,8.31
2022-09-07T14:59:36.807Z,8.32
2022-09-07T15:02:18.717Z,8.35
2022-09-07T15:04:46.695Z,8.34
2022-09-07T15:07:45.228Z,8.34
2022-09-07T15:10:21.043Z,8.35
2022-09-07T15:12:53.165Z,8.36
2022-09-07T15:15:21.791Z,8.35
2022-09-07T15:17:48.912Z,8.36
2022-09-07T15:20:38.598Z,8.40
2022-09-07T15:23:16.798Z,8.37
2022-09-07T15:25:50.943Z,8.35
2022-09-07T15:34:11.894Z,8.40
2022-09-07T15:36:49.697Z,8.40
2022-09-07T15:39:19.180Z,8.37
2022-09-07T15:41:46.282Z,8.35
2022-09-07T15:44:20.398Z,8.34
2022-09-07T15:49:37.184Z,8.30
2022-09-07T15:52:06.353Z,8.32
2022-09-07T15:54:35.048Z,8.33
2022-09-07T15:59:50.759Z,8.29
2022-09-07T16:05:05.090Z,8.26
2022-09-07T16:10:20.526Z,8.27
2022-09-07T16:13:09.676Z,8.29
2022-09-07T16:15:34.211Z,8.27
2022-09-07T16:18:02.319Z,8.29
2022-09-07T16:20:32.043Z,8.30
2022-09-07T16:23:15.821Z,8.29
2022-09-07T16:25:55.380Z,8.30
2022-09-07T16:28:22.614Z,8.27
2022-09-07T16:30:49.476Z,8.28
2022-09-07T16:33:16.313Z,8.26
2022-09-07T16:35:43.162Z,8.28
2022-09-07T16:40:56.681Z,8.31
2022-09-07T16:43:23.402Z,8.32
2022-09-07T16:46:04.726Z,8.37
2022-09-07T16:48:36.167Z,8.37
2022-09-07T16:51:05.006Z,8.33
2022-09-07T16:53:35.462Z,8.30
2022-09-07T16:56:13.137Z,8.32
2022-09-07T16:58:43.595Z,8.27
2022-09-07T17:01:13.113Z,8.23
2022-09-07T17:03:40.921Z,8.20
2022-09-07T17:06:09.876Z,8.22
2022-09-07T17:08:37.683Z,8.24
2022-09-07T17:11:10.464Z,8.27
2022-09-07T17:13:39.292Z,8.27
2022-09-07T17:16:12.108Z,8.28
2022-09-07T17:21:30.121Z,8.24
2022-09-07T17:23:56.932Z,8.20
2022-09-07T17:26:26.934Z,8.18
2022-09-07T17:29:00.389Z,8.21
2022-09-07T17:34:18.216Z,8.19
2022-09-07T17:36:45.178Z,8.17
2022-09-07T17:39:17.245Z,8.16
2022-09-07T17:41:45.921Z,8.13
2022-09-07T17:44:12.837Z,8.10
2022-09-07T17:46:39.731Z,8.11
2022-09-07T17:49:10.366Z,8.10
2022-09-07T17:51:37.316Z,8.07
2022-09-07T17:54:13.181Z,8.09
2022-09-07T17:56:41.283Z,8.06
2022-09-07T18:01:56.613Z,8.04
2022-09-07T18:04:23.876Z,8.01
2022-09-07T18:06:51.244Z,8.00
2022-09-07T18:09:19.649Z,7.98
2022-09-07T18:11:48.568Z,7.94
2022-09-07T18:14:16.756Z,7.92
2022-09-07T18:16:45.368Z,7.92
2022-09-07T18:19:12.804Z,7.90
2022-09-07T18:21:42.187Z,7.89
2022-09-07T18:24:23.297Z,7.87
2022-09-07T18:26:52.878Z,7.82
2022-09-07T18:29:36.903Z,7.78
2022-09-07T18:32:09.398Z,7.76
2022-09-07T18:34:37.959Z,7.72
2022-09-07T18:37:05.025Z,7.71
2022-09-07T18:39:32.482Z,7.70
2022-09-07T18:41:59.340Z,7.68
2022-09-07T18:47:22.306Z,7.66
2022-09-07T18:49:54.921Z,7.64
2022-09-07T18:55:09.968Z,7.68
2022-09-07T18:57:38.201Z,7.67
2022-09-07T19:00:08.387Z,7.66
2022-09-07T19:02:36.025Z,7.63
2022-09-07T19:07:50.301Z,7.60
2022-09-07T19:10:17.835Z,7.59
2022-09-07T19:12:46.122Z,7.57
2022-09-07T19:15:13.570Z,7.57
2022-09-07T19:17:40.410Z,7.58
2022-09-07T19:20:07.617Z,7.60
2022-09-07T19:22:34.395Z,7.61
2022-09-07T19:25:01.291Z,7.62
2022-09-07T19:27:28.065Z,7.62
2022-09-07T19:29:54.833Z,7.64
2022-09-07T19:32:21.916Z,7.66
2022-09-07T19:34:54.386Z,7.68
2022-09-07T19:37:25.409Z,7.68
2022-09-07T19:39:55.270Z,7.69
2022-09-07T19:42:23.758Z,7.70
2022-09-07T19:44:51.111Z,7.69
2022-09-07T19:47:19.146Z,7.70
2022-09-07T19:49:46.049Z,7.70
2022-09-07T19:52:12.856Z,7.72
2022-09-07T19:54:40.698Z,7.72
2022-09-07T19:57:07.994Z,7.74
2022-09-07T19:59:34.782Z,7.75
2022-09-07T20:02:01.749Z,7.76
2022-09-07T20:04:28.631Z,7.80
2022-09-07T20:06:56.350Z,7.80
2022-09-07T20:09:23.124Z,7.82
2022-09-07T20:11:50.114Z,7.84
2022-09-07T20:14:17.352Z,7.87
2022-09-07T20:16:44.348Z,7.87
2022-09-07T20:19:14.358Z,7.89
2022-09-07T20:21:41.531Z,7.92
2022-09-07T20:24:08.376Z,7.94
2022-09-07T20:26:35.168Z,7.98
2022-09-07T20:29:23.745Z,7.98
2022-09-07T20:31:48.924Z,8.02
2022-09-07T20:34:15.751Z,8.06
2022-09-07T20:36:42.489Z,8.06
2022-09-07T20:39:15.656Z,8.10
2022-09-07T20:41:42.587Z,8.11
2022-09-07T20:44:09.476Z,8.08
2022-09-07T20:46:36.564Z,8.05
2022-09-07T20:49:03.841Z,8.03
2022-09-07T20:51:30.897Z,8.00
2022-09-07T20:53:57.975Z,7.99
2022-09-07T20:56:27.617Z,7.98
2022-09-07T20:58:56.847Z,7.95
2022-09-07T21:01:24.241Z,7.93
2022-09-07T21:03:54.062Z,7.90
2022-09-07T21:06:22.406Z,7.86
2022-09-07T21:08:50.143Z,7.82
2022-09-07T21:11:23.157Z,7.83
2022-09-07T21:14:08.118Z,7.82
2022-09-07T21:16:36.208Z,7.80
2022-09-07T21:19:06.922Z,7.78
2022-09-07T21:21:41.908Z,7.77
2022-09-07T21:24:22.846Z,7.74
2022-09-07T21:26:50.620Z,7.67
2022-09-07T21:29:23.692Z,7.63
2022-09-07T21:31:53.574Z,7.60
2022-09-07T21:34:20.825Z,7.58
2022-09-07T21:36:47.741Z,7.58
2022-09-07T21:39:15.176Z,7.56
2022-09-07T21:41:43.506Z,7.57
2022-09-07T21:44:12.743Z,7.54
2022-09-07T21:46:39.671Z,7.53
2022-09-07T21:49:06.611Z,7.51
2022-09-07T21:51:33.377Z,7.52
2022-09-07T21:54:01.121Z,7.48
2022-09-07T21:56:30.259Z,7.45
2022-09-07T21:58:59.543Z,7.44
2022-09-07T22:01:27.797Z,7.42
2022-09-07T22:04:00.570Z,7.44
2022-09-07T22:06:27.982Z,7.42
2022-09-07T22:08:56.002Z,7.41
2022-09-07T22:11:24.659Z,7.42
2022-09-07T22:14:01.851Z,7.43
2022-09-07T22:16:29.534Z,7.39
2022-09-07T22:18:56.396Z,7.38
2022-09-07T22:21:25.912Z,7.39
2022-09-07T22:23:56.042Z,7.39
2022-09-07T22:26:25.117Z,7.41
2022-09-07T22:28:51.934Z,7.38
2022-09-07T22:31:24.411Z,7.39
2022-09-07T22:33:53.077Z,7.41
2022-09-07T22:36:26.071Z,7.43
2022-09-07T22:38:54.481Z,7.43
2022-09-07T22:41:23.865Z,7.45
2022-09-07T22:43:51.083Z,7.46
2022-09-07T22:46:20.712Z,7.48
2022-09-07T22:48:47.718Z,7.50
2022-09-07T22:51:15.532Z,7.51
2022-09-07T22:53:44.293Z,7.55
2022-09-07T22:56:10.985Z,7.54
2022-09-07T22:58:38.268Z,7.55
2022-09-07T23:01:06.710Z,7.58
2022-09-07T23:03:34.979Z,7.60
2022-09-07T23:06:02.850Z,7.61
2022-09-07T23:08:30.461Z,7.60
2022-09-07T23:11:05.154Z,7.62
2022-09-07T23:13:33.315Z,7.60
2022-09-07T23:16:04.656Z,7.64
2022-09-07T23:18:31.841Z,7.61
2022-09-07T23:21:00.623Z,7.60
2022-09-07T23:23:28.835Z,7.62
2022-09-07T23:25:55.854Z,7.61
2022-09-07T23:28:22.848Z,7.62
2022-09-07T23:30:51.682Z,7.62
2022-09-07T23:33:18.535Z,7.61
2022-09-07T23:35:55.996Z,7.64
2022-09-07T23:38:22.920Z,7.58
2022-09-07T23:40:49.708Z,7.63
2022-09-07T23:43:16.428Z,7.65
2022-09-07T23:45:43.229Z,7.62
2022-09-07T23:48:09.973Z,7.66
2022-09-07T23:50:36.744Z,7.68
2022-09-07T23:53:03.624Z,7.67
2022-09-07T23:55:30.438Z,7.67
2022-09-07T23:57:57.209Z,7.69
